sensor_id;sensor_type;location;lat;lon;timestamp;P1;durP1;ratioP1;P2;durP2;ratioP2
4895;SDS011;2463;49.948;8.472;2023-05-19T00:01:12;92.10;;;5.50;;
4895;SDS011;2463;49.948;8.472;2023-05-19T00:03:48;94.30;;;5.72;;
4895;SDS011;2463;49.948;8.472;2023-05-19T00:06:22;98.80;;;6.65;;
4895;SDS011;2463;49.948;8.472;2023-05-19T00:09:00;93.72;;;5.50;;
4895;SDS011;2463;49.948;8.472;2023-05-19T00:11:29;93.50;;;5.47;;
4895;SDS011;2463;49.948;8.472;2023-05-19T00:13:57;94.65;;;5.72;;
4895;SDS011;2463;49.948;8.472;2023-05-19T00:16:25;93.82;;;5.53;;
4895;SDS011;2463;49.948;8.472;2023-05-19T00:18:53;92.82;;;5.30;;
4895;SDS011;2463;49.948;8.472;2023-05-19T00:21:20;92.38;;;5.28;;
4895;SDS011;2463;49.948;8.472;2023-05-19T00:23:46;90.47;;;5.50;;
4895;SDS011;2463;49.948;8.472;2023-05-19T00:26:13;90.80;;;5.35;;
4895;SDS011;2463;49.948;8.472;2023-05-19T00:28:40;94.15;;;5.15;;
4895;SDS011;2463;49.948;8.472;2023-05-19T00:31:07;92.07;;;5.20;;
4895;SDS011;2463;49.948;8.472;2023-05-19T00:33:34;91.70;;;5.65;;
4895;SDS011;2463;49.948;8.472;2023-05-19T00:36:01;93.38;;;5.82;;
4895;SDS011;2463;49.948;8.472;2023-05-19T00:38:33;94.78;;;5.70;;
4895;SDS011;2463;49.948;8.472;2023-05-19T00:41:01;97.05;;;5.80;;
4895;SDS011;2463;49.948;8.472;2023-05-19T00:43:29;92.68;;;5.45;;
4895;SDS011;2463;49.948;8.472;2023-05-19T00:45:56;94.78;;;5.80;;
4895;SDS011;2463;49.948;8.472;2023-05-19T00:48:23;92.00;;;5.45;;
4895;SDS011;2463;49.948;8.472;2023-05-19T00:50:55;95.72;;;5.50;;
4895;SDS011;2463;49.948;8.472;2023-05-19T00:53:27;94.80;;;5.63;;
4895;SDS011;2463;49.948;8.472;2023-05-19T00:55:54;93.25;;;5.30;;
4895;SDS011;2463;49.948;8.472;2023-05-19T00:58:21;93.95;;;5.90;;
4895;SDS011;2463;49.948;8.472;2023-05-19T01:00:50;90.80;;;5.20;;
4895;SDS011;2463;49.948;8.472;2023-05-19T01:03:18;91.88;;;5.32;;
4895;SDS011;2463;49.948;8.472;2023-05-19T01:05:45;91.75;;;5.30;;
4895;SDS011;2463;49.948;8.472;2023-05-19T01:08:12;93.85;;;5.45;;
4895;SDS011;2463;49.948;8.472;2023-05-19T01:10:39;91.75;;;5.72;;
4895;SDS011;2463;49.948;8.472;2023-05-19T01:13:06;92.53;;;5.35;;
4895;SDS011;2463;49.948;8.472;2023-05-19T01:15:35;95.32;;;5.68;;
4895;SDS011;2463;49.948;8.472;2023-05-19T01:18:17;92.57;;;5.30;;
4895;SDS011;2463;49.948;8.472;2023-05-19T01:20:52;92.45;;;5.03;;
4895;SDS011;2463;49.948;8.472;2023-05-19T01:23:46;98.78;;;5.50;;
4895;SDS011;2463;49.948;8.472;2023-05-19T01:32:08;90.93;;;5.13;;
4895;SDS011;2463;49.948;8.472;2023-05-19T01:34:38;94.35;;;5.55;;
4895;SDS011;2463;49.948;8.472;2023-05-19T01:37:07;95.45;;;5.30;;
4895;SDS011;2463;49.948;8.472;2023-05-19T01:39:35;94.70;;;5.47;;
4895;SDS011;2463;49.948;8.472;2023-05-19T01:42:02;92.88;;;5.50;;
4895;SDS011;2463;49.948;8.472;2023-05-19T01:44:30;93.47;;;5.32;;
4895;SDS011;2463;49.948;8.472;2023-05-19T01:46:59;94.60;;;5.40;;
4895;SDS011;2463;49.948;8.472;2023-05-19T01:49:26;92.07;;;5.07;;
4895;SDS011;2463;49.948;8.472;2023-05-19T01:51:53;97.45;;;5.30;;
4895;SDS011;2463;49.948;8.472;2023-05-19T01:54:20;93.72;;;5.63;;
4895;SDS011;2463;49.948;8.472;2023-05-19T01:59:46;91.82;;;5.15;;
4895;SDS011;2463;49.948;8.472;2023-05-19T02:02:44;92.47;;;5.60;;
4895;SDS011;2463;49.948;8.472;2023-05-19T02:05:33;94.07;;;5.70;;
4895;SDS011;2463;49.948;8.472;2023-05-19T02:11:34;94.45;;;5.80;;
4895;SDS011;2463;49.948;8.472;2023-05-19T02:14:24;92.47;;;5.00;;
4895;SDS011;2463;49.948;8.472;2023-05-19T02:16:54;92.65;;;5.55;;
4895;SDS011;2463;49.948;8.472;2023-05-19T02:19:26;97.93;;;5.57;;
4895;SDS011;2463;49.948;8.472;2023-05-19T02:21:55;93.57;;;5.45;;
4895;SDS011;2463;49.948;8.472;2023-05-19T02:24:22;95.38;;;5.65;;
4895;SDS011;2463;49.948;8.472;2023-05-19T02:26:49;95.57;;;5.63;;
4895;SDS011;2463;49.948;8.472;2023-05-19T02:29:17;92.82;;;5.50;;
4895;SDS011;2463;49.948;8.472;2023-05-19T02:31:44;98.22;;;6.00;;
4895;SDS011;2463;49.948;8.472;2023-05-19T02:34:11;98.53;;;5.22;;
4895;SDS011;2463;49.948;8.472;2023-05-19T02:36:39;98.22;;;5.50;;
4895;SDS011;2463;49.948;8.472;2023-05-19T02:39:11;97.75;;;5.70;;
4895;SDS011;2463;49.948;8.472;2023-05-19T02:41:38;94.68;;;6.05;;
4895;SDS011;2463;49.948;8.472;2023-05-19T02:44:05;95.53;;;5.80;;
4895;SDS011;2463;49.948;8.472;2023-05-19T02:46:32;92.25;;;5.57;;
4895;SDS011;2463;49.948;8.472;2023-05-19T02:48:59;92.90;;;5.55;;
4895;SDS011;2463;49.948;8.472;2023-05-19T02:51:26;92.30;;;5.20;;
4895;SDS011;2463;49.948;8.472;2023-05-19T02:53:52;96.65;;;7.25;;
4895;SDS011;2463;49.948;8.472;2023-05-19T02:56:19;94.65;;;5.35;;
4895;SDS011;2463;49.948;8.472;2023-05-19T02:58:46;93.22;;;5.15;;
4895;SDS011;2463;49.948;8.472;2023-05-19T03:01:13;93.75;;;6.05;;
4895;SDS011;2463;49.948;8.472;2023-05-19T03:03:41;93.57;;;5.63;;
4895;SDS011;2463;49.948;8.472;2023-05-19T03:06:08;95.70;;;5.80;;
4895;SDS011;2463;49.948;8.472;2023-05-19T03:08:35;91.78;;;5.40;;
4895;SDS011;2463;49.948;8.472;2023-05-19T03:11:01;102.05;;;5.82;;
4895;SDS011;2463;49.948;8.472;2023-05-19T03:13:28;93.05;;;5.57;;
4895;SDS011;2463;49.948;8.472;2023-05-19T03:15:55;91.55;;;5.55;;
4895;SDS011;2463;49.948;8.472;2023-05-19T03:18:24;92.75;;;5.43;;
4895;SDS011;2463;49.948;8.472;2023-05-19T03:20:51;92.18;;;5.50;;
4895;SDS011;2463;49.948;8.472;2023-05-19T03:23:20;97.68;;;5.57;;
4895;SDS011;2463;49.948;8.472;2023-05-19T03:25:47;97.57;;;5.53;;
4895;SDS011;2463;49.948;8.472;2023-05-19T03:28:14;93.10;;;5.78;;
4895;SDS011;2463;49.948;8.472;2023-05-19T03:30:40;92.38;;;5.55;;
4895;SDS011;2463;49.948;8.472;2023-05-19T03:33:07;94.93;;;5.50;;
4895;SDS011;2463;49.948;8.472;2023-05-19T03:35:34;96.30;;;5.60;;
4895;SDS011;2463;49.948;8.472;2023-05-19T03:38:01;95.80;;;7.38;;
4895;SDS011;2463;49.948;8.472;2023-05-19T03:40:28;94.75;;;5.20;;
4895;SDS011;2463;49.948;8.472;2023-05-19T03:42:55;93.57;;;5.40;;
4895;SDS011;2463;49.948;8.472;2023-05-19T03:45:21;95.18;;;5.68;;
4895;SDS011;2463;49.948;8.472;2023-05-19T03:47:48;97.00;;;5.88;;
4895;SDS011;2463;49.948;8.472;2023-05-19T03:50:15;92.72;;;5.85;;
4895;SDS011;2463;49.948;8.472;2023-05-19T03:52:41;92.05;;;5.53;;
4895;SDS011;2463;49.948;8.472;2023-05-19T03:55:11;92.05;;;5.43;;
4895;SDS011;2463;49.948;8.472;2023-05-19T03:57:39;90.47;;;5.30;;
4895;SDS011;2463;49.948;8.472;2023-05-19T04:00:06;98.45;;;5.80;;
4895;SDS011;2463;49.948;8.472;2023-05-19T04:02:36;90.95;;;5.32;;
4895;SDS011;2463;49.948;8.472;2023-05-19T04:05:03;95.53;;;5.35;;
4895;SDS011;2463;49.948;8.472;2023-05-19T04:07:30;94.90;;;5.53;;
4895;SDS011;2463;49.948;8.472;2023-05-19T04:09:57;96.10;;;5.75;;
4895;SDS011;2463;49.948;8.472;2023-05-19T04:12:23;94.72;;;6.00;;
4895;SDS011;2463;49.948;8.472;2023-05-19T04:14:50;91.95;;;5.30;;
4895;SDS011;2463;49.948;8.472;2023-05-19T04:17:17;91.65;;;5.80;;
4895;SDS011;2463;49.948;8.472;2023-05-19T04:19:44;95.78;;;5.55;;
4895;SDS011;2463;49.948;8.472;2023-05-19T04:22:10;95.32;;;5.60;;
4895;SDS011;2463;49.948;8.472;2023-05-19T04:24:37;97.70;;;5.50;;
4895;SDS011;2463;49.948;8.472;2023-05-19T04:27:04;92.82;;;5.25;;
4895;SDS011;2463;49.948;8.472;2023-05-19T04:29:39;95.45;;;5.72;;
4895;SDS011;2463;49.948;8.472;2023-05-19T04:32:06;96.63;;;6.43;;
4895;SDS011;2463;49.948;8.472;2023-05-19T04:34:33;91.88;;;5.45;;
4895;SDS011;2463;49.948;8.472;2023-05-19T04:37:01;92.78;;;5.30;;
4895;SDS011;2463;49.948;8.472;2023-05-19T04:39:28;92.35;;;5.35;;
4895;SDS011;2463;49.948;8.472;2023-05-19T04:41:54;94.30;;;6.00;;
4895;SDS011;2463;49.948;8.472;2023-05-19T04:44:21;92.05;;;5.55;;
4895;SDS011;2463;49.948;8.472;2023-05-19T04:46:48;94.75;;;6.57;;
4895;SDS011;2463;49.948;8.472;2023-05-19T04:49:19;93.15;;;5.80;;
4895;SDS011;2463;49.948;8.472;2023-05-19T04:51:49;93.35;;;6.47;;
4895;SDS011;2463;49.948;8.472;2023-05-19T04:54:21;95.35;;;5.80;;
4895;SDS011;2463;49.948;8.472;2023-05-19T04:56:47;92.97;;;5.82;;
4895;SDS011;2463;49.948;8.472;2023-05-19T04:59:14;98.85;;;5.90;;
4895;SDS011;2463;49.948;8.472;2023-05-19T05:01:41;104.50;;;5.82;;
4895;SDS011;2463;49.948;8.472;2023-05-19T05:04:08;92.00;;;5.30;;
4895;SDS011;2463;49.948;8.472;2023-05-19T05:06:35;91.88;;;5.72;;
4895;SDS011;2463;49.948;8.472;2023-05-19T05:09:03;92.90;;;5.90;;
4895;SDS011;2463;49.948;8.472;2023-05-19T05:11:30;94.38;;;5.57;;
4895;SDS011;2463;49.948;8.472;2023-05-19T05:13:57;94.30;;;5.70;;
4895;SDS011;2463;49.948;8.472;2023-05-19T05:16:24;93.50;;;5.57;;
4895;SDS011;2463;49.948;8.472;2023-05-19T05:18:51;92.68;;;5.70;;
4895;SDS011;2463;49.948;8.472;2023-05-19T05:21:18;93.75;;;5.93;;
4895;SDS011;2463;49.948;8.472;2023-05-19T05:23:45;97.35;;;6.88;;
4895;SDS011;2463;49.948;8.472;2023-05-19T05:26:16;91.10;;;5.40;;
4895;SDS011;2463;49.948;8.472;2023-05-19T05:28:51;93.05;;;5.50;;
4895;SDS011;2463;49.948;8.472;2023-05-19T05:31:18;94.20;;;5.50;;
4895;SDS011;2463;49.948;8.472;2023-05-19T05:33:44;94.18;;;6.20;;
4895;SDS011;2463;49.948;8.472;2023-05-19T05:36:11;95.82;;;5.80;;
4895;SDS011;2463;49.948;8.472;2023-05-19T05:38:38;92.50;;;5.63;;
4895;SDS011;2463;49.948;8.472;2023-05-19T05:41:05;92.78;;;5.80;;
4895;SDS011;2463;49.948;8.472;2023-05-19T05:43:32;94.55;;;6.03;;
4895;SDS011;2463;49.948;8.472;2023-05-19T05:45:58;95.70;;;6.05;;
4895;SDS011;2463;49.948;8.472;2023-05-19T05:48:25;93.93;;;5.55;;
4895;SDS011;2463;49.948;8.472;2023-05-19T05:50:52;95.60;;;5.70;;
4895;SDS011;2463;49.948;8.472;2023-05-19T05:53:21;91.38;;;5.47;;
4895;SDS011;2463;49.948;8.472;2023-05-19T05:55:50;94.20;;;5.63;;
4895;SDS011;2463;49.948;8.472;2023-05-19T05:58:18;93.35;;;5.28;;
4895;SDS011;2463;49.948;8.472;2023-05-19T06:00:46;95.72;;;6.32;;
4895;SDS011;2463;49.948;8.472;2023-05-19T06:03:14;92.45;;;5.50;;
4895;SDS011;2463;49.948;8.472;2023-05-19T06:05:42;90.20;;;5.10;;
4895;SDS011;2463;49.948;8.472;2023-05-19T06:08:08;92.28;;;5.35;;
4895;SDS011;2463;49.948;8.472;2023-05-19T06:10:35;93.63;;;5.30;;
4895;SDS011;2463;49.948;8.472;2023-05-19T06:13:04;96.00;;;5.75;;
4895;SDS011;2463;49.948;8.472;2023-05-19T06:15:30;94.35;;;5.72;;
4895;SDS011;2463;49.948;8.472;2023-05-19T06:17:57;93.10;;;6.00;;
4895;SDS011;2463;49.948;8.472;2023-05-19T06:20:24;91.07;;;4.90;;
4895;SDS011;2463;49.948;8.472;2023-05-19T06:22:51;91.75;;;4.95;;
4895;SDS011;2463;49.948;8.472;2023-05-19T06:25:18;91.18;;;5.82;;
4895;SDS011;2463;49.948;8.472;2023-05-19T06:27:45;91.93;;;4.80;;
4895;SDS011;2463;49.948;8.472;2023-05-19T06:30:12;90.65;;;4.90;;
4895;SDS011;2463;49.948;8.472;2023-05-19T06:32:39;92.25;;;5.10;;
4895;SDS011;2463;49.948;8.472;2023-05-19T06:35:06;91.10;;;4.93;;
4895;SDS011;2463;49.948;8.472;2023-05-19T06:37:33;88.77;;;4.40;;
4895;SDS011;2463;49.948;8.472;2023-05-19T06:40:00;87.17;;;4.20;;
4895;SDS011;2463;49.948;8.472;2023-05-19T06:42:26;96.70;;;4.60;;
4895;SDS011;2463;49.948;8.472;2023-05-19T06:44:54;86.37;;;4.00;;
4895;SDS011;2463;49.948;8.472;2023-05-19T06:47:21;85.97;;;3.80;;
4895;SDS011;2463;49.948;8.472;2023-05-19T06:49:47;85.80;;;3.80;;
4895;SDS011;2463;49.948;8.472;2023-05-19T06:52:20;86.60;;;3.80;;
4895;SDS011;2463;49.948;8.472;2023-05-19T06:54:47;84.17;;;3.70;;
4895;SDS011;2463;49.948;8.472;2023-05-19T06:57:14;89.90;;;3.77;;
4895;SDS011;2463;49.948;8.472;2023-05-19T06:59:41;87.20;;;3.87;;
4895;SDS011;2463;49.948;8.472;2023-05-19T07:02:08;86.10;;;4.33;;
4895;SDS011;2463;49.948;8.472;2023-05-19T07:04:35;83.67;;;4.20;;
4895;SDS011;2463;49.948;8.472;2023-05-19T07:07:02;84.87;;;3.70;;
4895;SDS011;2463;49.948;8.472;2023-05-19T07:09:29;89.20;;;4.13;;
4895;SDS011;2463;49.948;8.472;2023-05-19T07:11:56;87.50;;;3.50;;
4895;SDS011;2463;49.948;8.472;2023-05-19T07:14:22;85.57;;;3.60;;
4895;SDS011;2463;49.948;8.472;2023-05-19T07:16:49;84.00;;;3.53;;
4895;SDS011;2463;49.948;8.472;2023-05-19T07:19:16;86.97;;;4.27;;
4895;SDS011;2463;49.948;8.472;2023-05-19T07:21:46;86.70;;;3.63;;
4895;SDS011;2463;49.948;8.472;2023-05-19T07:24:13;86.17;;;4.03;;
4895;SDS011;2463;49.948;8.472;2023-05-19T07:26:40;85.90;;;4.00;;
4895;SDS011;2463;49.948;8.472;2023-05-19T07:29:07;91.40;;;4.00;;
4895;SDS011;2463;49.948;8.472;2023-05-19T07:31:34;86.23;;;4.17;;
4895;SDS011;2463;49.948;8.472;2023-05-19T07:34:01;86.33;;;3.87;;
4895;SDS011;2463;49.948;8.472;2023-05-19T07:36:28;88.50;;;4.27;;
4895;SDS011;2463;49.948;8.472;2023-05-19T07:38:55;88.07;;;4.30;;
4895;SDS011;2463;49.948;8.472;2023-05-19T07:41:22;86.77;;;4.20;;
4895;SDS011;2463;49.948;8.472;2023-05-19T07:43:49;88.17;;;4.20;;
4895;SDS011;2463;49.948;8.472;2023-05-19T07:46:15;91.17;;;4.00;;
4895;SDS011;2463;49.948;8.472;2023-05-19T07:48:42;85.80;;;3.77;;
4895;SDS011;2463;49.948;8.472;2023-05-19T07:51:09;87.60;;;4.33;;
4895;SDS011;2463;49.948;8.472;2023-05-19T07:53:37;86.87;;;3.80;;
4895;SDS011;2463;49.948;8.472;2023-05-19T07:56:04;85.23;;;4.00;;
4895;SDS011;2463;49.948;8.472;2023-05-19T07:58:30;86.73;;;4.27;;
4895;SDS011;2463;49.948;8.472;2023-05-19T08:00:57;90.27;;;4.60;;
4895;SDS011;2463;49.948;8.472;2023-05-19T08:03:25;86.87;;;3.90;;
4895;SDS011;2463;49.948;8.472;2023-05-19T08:05:52;87.40;;;3.87;;
4895;SDS011;2463;49.948;8.472;2023-05-19T08:08:19;86.30;;;4.10;;
4895;SDS011;2463;49.948;8.472;2023-05-19T08:10:47;91.70;;;5.37;;
4895;SDS011;2463;49.948;8.472;2023-05-19T08:13:13;84.60;;;3.70;;
4895;SDS011;2463;49.948;8.472;2023-05-19T08:15:40;85.27;;;4.10;;
4895;SDS011;2463;49.948;8.472;2023-05-19T08:18:07;90.60;;;4.20;;
4895;SDS011;2463;49.948;8.472;2023-05-19T08:20:34;89.17;;;4.10;;
4895;SDS011;2463;49.948;8.472;2023-05-19T08:23:01;87.77;;;4.20;;
4895;SDS011;2463;49.948;8.472;2023-05-19T08:25:28;85.43;;;3.87;;
4895;SDS011;2463;49.948;8.472;2023-05-19T08:27:55;86.00;;;4.20;;
4895;SDS011;2463;49.948;8.472;2023-05-19T08:30:21;88.07;;;4.30;;
4895;SDS011;2463;49.948;8.472;2023-05-19T08:32:49;85.70;;;3.97;;
4895;SDS011;2463;49.948;8.472;2023-05-19T08:35:15;86.30;;;3.90;;
4895;SDS011;2463;49.948;8.472;2023-05-19T08:37:42;85.70;;;3.70;;
4895;SDS011;2463;49.948;8.472;2023-05-19T08:40:10;92.17;;;3.77;;
4895;SDS011;2463;49.948;8.472;2023-05-19T08:42:43;84.80;;;3.83;;
4895;SDS011;2463;49.948;8.472;2023-05-19T08:45:11;85.37;;;3.73;;
4895;SDS011;2463;49.948;8.472;2023-05-19T08:47:41;83.70;;;3.70;;
4895;SDS011;2463;49.948;8.472;2023-05-19T08:50:10;85.90;;;5.17;;
4895;SDS011;2463;49.948;8.472;2023-05-19T08:52:48;84.67;;;3.67;;
4895;SDS011;2463;49.948;8.472;2023-05-19T08:57:47;84.60;;;4.00;;
4895;SDS011;2463;49.948;8.472;2023-05-19T09:00:14;84.17;;;3.80;;
4895;SDS011;2463;49.948;8.472;2023-05-19T09:02:43;84.10;;;3.93;;
4895;SDS011;2463;49.948;8.472;2023-05-19T09:05:26;84.63;;;3.60;;
4895;SDS011;2463;49.948;8.472;2023-05-19T09:07:53;84.60;;;3.53;;
4895;SDS011;2463;49.948;8.472;2023-05-19T09:10:20;90.77;;;3.80;;
4895;SDS011;2463;49.948;8.472;2023-05-19T09:12:47;85.87;;;4.47;;
4895;SDS011;2463;49.948;8.472;2023-05-19T09:15:16;84.20;;;3.90;;
4895;SDS011;2463;49.948;8.472;2023-05-19T09:17:47;83.40;;;3.63;;
4895;SDS011;2463;49.948;8.472;2023-05-19T09:20:14;83.67;;;3.50;;
4895;SDS011;2463;49.948;8.472;2023-05-19T09:22:42;85.60;;;3.77;;
4895;SDS011;2463;49.948;8.472;2023-05-19T09:25:22;83.13;;;3.70;;
4895;SDS011;2463;49.948;8.472;2023-05-19T09:27:49;84.70;;;3.67;;
4895;SDS011;2463;49.948;8.472;2023-05-19T09:30:16;83.13;;;3.73;;
4895;SDS011;2463;49.948;8.472;2023-05-19T09:32:43;82.40;;;3.40;;
4895;SDS011;2463;49.948;8.472;2023-05-19T09:35:11;86.43;;;3.63;;
4895;SDS011;2463;49.948;8.472;2023-05-19T09:37:39;85.30;;;3.57;;
4895;SDS011;2463;49.948;8.472;2023-05-19T09:40:07;86.67;;;3.40;;
4895;SDS011;2463;49.948;8.472;2023-05-19T09:42:37;84.13;;;4.10;;
4895;SDS011;2463;49.948;8.472;2023-05-19T09:45:06;88.50;;;3.50;;
4895;SDS011;2463;49.948;8.472;2023-05-19T09:47:37;83.27;;;3.80;;
4895;SDS011;2463;49.948;8.472;2023-05-19T09:50:05;82.67;;;3.50;;
4895;SDS011;2463;49.948;8.472;2023-05-19T09:52:38;86.33;;;3.60;;
4895;SDS011;2463;49.948;8.472;2023-05-19T09:55:10;87.07;;;3.40;;
4895;SDS011;2463;49.948;8.472;2023-05-19T09:57:38;84.33;;;3.70;;
4895;SDS011;2463;49.948;8.472;2023-05-19T10:02:42;83.20;;;3.40;;
4895;SDS011;2463;49.948;8.472;2023-05-19T10:05:13;85.30;;;3.53;;
4895;SDS011;2463;49.948;8.472;2023-05-19T10:07:43;84.00;;;3.50;;
4895;SDS011;2463;49.948;8.472;2023-05-19T10:10:11;82.70;;;3.50;;
4895;SDS011;2463;49.948;8.472;2023-05-19T10:12:39;86.33;;;3.10;;
4895;SDS011;2463;49.948;8.472;2023-05-19T10:15:10;81.97;;;3.40;;
4895;SDS011;2463;49.948;8.472;2023-05-19T10:17:39;88.07;;;3.70;;
4895;SDS011;2463;49.948;8.472;2023-05-19T10:20:07;81.97;;;3.07;;
4895;SDS011;2463;49.948;8.472;2023-05-19T10:22:36;84.17;;;3.10;;
4895;SDS011;2463;49.948;8.472;2023-05-19T10:25:04;82.80;;;3.60;;
4895;SDS011;2463;49.948;8.472;2023-05-19T10:27:40;82.47;;;3.57;;
4895;SDS011;2463;49.948;8.472;2023-05-19T10:30:11;82.67;;;3.23;;
4895;SDS011;2463;49.948;8.472;2023-05-19T10:32:42;80.90;;;3.23;;
4895;SDS011;2463;49.948;8.472;2023-05-19T10:35:32;84.33;;;4.53;;
4895;SDS011;2463;49.948;8.472;2023-05-19T10:41:09;83.83;;;3.50;;
4895;SDS011;2463;49.948;8.472;2023-05-19T10:46:36;85.70;;;3.77;;
4895;SDS011;2463;49.948;8.472;2023-05-19T10:49:08;83.80;;;3.43;;
4895;SDS011;2463;49.948;8.472;2023-05-19T10:51:35;83.20;;;3.53;;
4895;SDS011;2463;49.948;8.472;2023-05-19T10:54:02;81.67;;;3.30;;
4895;SDS011;2463;49.948;8.472;2023-05-19T10:56:38;81.47;;;3.10;;
4895;SDS011;2463;49.948;8.472;2023-05-19T10:59:07;80.27;;;3.13;;
4895;SDS011;2463;49.948;8.472;2023-05-19T11:02:04;81.73;;;3.30;;
4895;SDS011;2463;49.948;8.472;2023-05-19T11:07:17;85.13;;;3.40;;
4895;SDS011;2463;49.948;8.472;2023-05-19T11:09:51;85.17;;;3.43;;
4895;SDS011;2463;49.948;8.472;2023-05-19T11:12:21;82.63;;;3.20;;
4895;SDS011;2463;49.948;8.472;2023-05-19T11:14:53;82.30;;;3.53;;
4895;SDS011;2463;49.948;8.472;2023-05-19T11:17:20;82.27;;;3.47;;
4895;SDS011;2463;49.948;8.472;2023-05-19T11:19:51;81.47;;;3.40;;
4895;SDS011;2463;49.948;8.472;2023-05-19T11:22:23;87.60;;;4.03;;
4895;SDS011;2463;49.948;8.472;2023-05-19T11:24:52;81.30;;;3.33;;
4895;SDS011;2463;49.948;8.472;2023-05-19T11:27:24;82.60;;;3.30;;
4895;SDS011;2463;49.948;8.472;2023-05-19T11:30:07;84.70;;;3.60;;
4895;SDS011;2463;49.948;8.472;2023-05-19T11:32:39;82.23;;;3.30;;
4895;SDS011;2463;49.948;8.472;2023-05-19T11:35:08;82.57;;;3.20;;
4895;SDS011;2463;49.948;8.472;2023-05-19T11:37:35;81.53;;;3.40;;
4895;SDS011;2463;49.948;8.472;2023-05-19T11:40:02;81.87;;;3.47;;
4895;SDS011;2463;49.948;8.472;2023-05-19T11:42:33;84.63;;;3.73;;
4895;SDS011;2463;49.948;8.472;2023-05-19T11:45:02;85.17;;;3.47;;
4895;SDS011;2463;49.948;8.472;2023-05-19T11:47:30;79.87;;;3.20;;
4895;SDS011;2463;49.948;8.472;2023-05-19T11:50:20;81.57;;;3.27;;
4895;SDS011;2463;49.948;8.472;2023-05-19T11:52:47;80.63;;;3.20;;
4895;SDS011;2463;49.948;8.472;2023-05-19T11:55:14;83.70;;;3.50;;
4895;SDS011;2463;49.948;8.472;2023-05-19T11:57:49;85.77;;;3.60;;
4895;SDS011;2463;49.948;8.472;2023-05-19T12:00:33;85.03;;;3.43;;
4895;SDS011;2463;49.948;8.472;2023-05-19T12:03:02;88.30;;;3.90;;
4895;SDS011;2463;49.948;8.472;2023-05-19T12:05:30;91.63;;;4.80;;
4895;SDS011;2463;49.948;8.472;2023-05-19T12:08:03;83.27;;;3.53;;
4895;SDS011;2463;49.948;8.472;2023-05-19T12:10:31;84.93;;;3.73;;
4895;SDS011;2463;49.948;8.472;2023-05-19T12:13:01;81.63;;;3.43;;
4895;SDS011;2463;49.948;8.472;2023-05-19T12:15:29;82.30;;;3.40;;
4895;SDS011;2463;49.948;8.472;2023-05-19T12:17:57;81.17;;;3.20;;
4895;SDS011;2463;49.948;8.472;2023-05-19T12:20:28;85.90;;;4.20;;
4895;SDS011;2463;49.948;8.472;2023-05-19T12:23:00;83.57;;;3.93;;
4895;SDS011;2463;49.948;8.472;2023-05-19T12:25:28;82.70;;;3.87;;
4895;SDS011;2463;49.948;8.472;2023-05-19T12:27:57;82.60;;;3.40;;
4895;SDS011;2463;49.948;8.472;2023-05-19T12:30:28;82.77;;;3.90;;
4895;SDS011;2463;49.948;8.472;2023-05-19T12:32:58;82.97;;;3.50;;
4895;SDS011;2463;49.948;8.472;2023-05-19T12:35:25;85.30;;;3.43;;
4895;SDS011;2463;49.948;8.472;2023-05-19T12:37:54;84.97;;;3.90;;
4895;SDS011;2463;49.948;8.472;2023-05-19T12:40:20;83.70;;;3.60;;
4895;SDS011;2463;49.948;8.472;2023-05-19T12:42:48;83.53;;;4.03;;
4895;SDS011;2463;49.948;8.472;2023-05-19T12:45:19;86.13;;;4.00;;
4895;SDS011;2463;49.948;8.472;2023-05-19T12:47:47;83.43;;;3.30;;
4895;SDS011;2463;49.948;8.472;2023-05-19T12:50:15;81.60;;;3.40;;
4895;SDS011;2463;49.948;8.472;2023-05-19T12:52:46;84.60;;;3.90;;
4895;SDS011;2463;49.948;8.472;2023-05-19T12:55:16;81.90;;;3.80;;
4895;SDS011;2463;49.948;8.472;2023-05-19T12:57:49;83.37;;;3.73;;
4895;SDS011;2463;49.948;8.472;2023-05-19T13:00:20;84.97;;;4.50;;
4895;SDS011;2463;49.948;8.472;2023-05-19T13:02:54;84.97;;;3.40;;
4895;SDS011;2463;49.948;8.472;2023-05-19T13:05:22;83.50;;;3.80;;
4895;SDS011;2463;49.948;8.472;2023-05-19T13:07:59;83.47;;;3.27;;
4895;SDS011;2463;49.948;8.472;2023-05-19T13:10:31;81.80;;;3.40;;
4895;SDS011;2463;49.948;8.472;2023-05-19T13:12:59;84.00;;;3.40;;
4895;SDS011;2463;49.948;8.472;2023-05-19T13:15:27;84.07;;;3.60;;
4895;SDS011;2463;49.948;8.472;2023-05-19T13:17:56;85.23;;;4.57;;
4895;SDS011;2463;49.948;8.472;2023-05-19T13:20:25;82.83;;;3.60;;
4895;SDS011;2463;49.948;8.472;2023-05-19T13:22:53;80.80;;;3.43;;
4895;SDS011;2463;49.948;8.472;2023-05-19T13:25:21;83.83;;;3.80;;
4895;SDS011;2463;49.948;8.472;2023-05-19T13:27:48;81.57;;;3.17;;
4895;SDS011;2463;49.948;8.472;2023-05-19T13:30:14;81.97;;;3.37;;
4895;SDS011;2463;49.948;8.472;2023-05-19T13:32:42;83.40;;;3.33;;
4895;SDS011;2463;49.948;8.472;2023-05-19T13:35:10;83.57;;;3.20;;
4895;SDS011;2463;49.948;8.472;2023-05-19T13:37:38;81.87;;;3.20;;
4895;SDS011;2463;49.948;8.472;2023-05-19T13:40:05;81.70;;;3.10;;
4895;SDS011;2463;49.948;8.472;2023-05-19T13:42:32;81.63;;;3.17;;
4895;SDS011;2463;49.948;8.472;2023-05-19T13:45:00;83.00;;;3.60;;
4895;SDS011;2463;49.948;8.472;2023-05-19T13:47:27;81.20;;;3.20;;
4895;SDS011;2463;49.948;8.472;2023-05-19T13:49:54;82.60;;;3.70;;
4895;SDS011;2463;49.948;8.472;2023-05-19T13:52:21;83.57;;;3.33;;
4895;SDS011;2463;49.948;8.472;2023-05-19T13:54:48;83.57;;;3.70;;
4895;SDS011;2463;49.948;8.472;2023-05-19T13:57:15;83.40;;;3.70;;
4895;SDS011;2463;49.948;8.472;2023-05-19T13:59:42;83.53;;;3.53;;
4895;SDS011;2463;49.948;8.472;2023-05-19T14:02:26;84.80;;;3.47;;
4895;SDS011;2463;49.948;8.472;2023-05-19T14:04:53;82.80;;;3.67;;
4895;SDS011;2463;49.948;8.472;2023-05-19T14:07:21;82.23;;;3.10;;
4895;SDS011;2463;49.948;8.472;2023-05-19T14:09:47;83.47;;;3.40;;
4895;SDS011;2463;49.948;8.472;2023-05-19T14:12:16;85.87;;;3.67;;
4895;SDS011;2463;49.948;8.472;2023-05-19T14:14:43;82.30;;;3.37;;
4895;SDS011;2463;49.948;8.472;2023-05-19T14:17:09;83.10;;;3.53;;
4895;SDS011;2463;49.948;8.472;2023-05-19T14:19:36;83.40;;;3.33;;
4895;SDS011;2463;49.948;8.472;2023-05-19T14:22:03;83.87;;;3.60;;
4895;SDS011;2463;49.948;8.472;2023-05-19T14:24:30;86.40;;;4.17;;
4895;SDS011;2463;49.948;8.472;2023-05-19T14:26:57;85.40;;;3.73;;
4895;SDS011;2463;49.948;8.472;2023-05-19T14:29:24;84.30;;;3.63;;
4895;SDS011;2463;49.948;8.472;2023-05-19T14:31:50;82.00;;;3.10;;
4895;SDS011;2463;49.948;8.472;2023-05-19T14:34:17;83.70;;;3.70;;
4895;SDS011;2463;49.948;8.472;2023-05-19T14:36:46;84.63;;;3.53;;
4895;SDS011;2463;49.948;8.472;2023-05-19T14:39:13;84.73;;;3.83;;
4895;SDS011;2463;49.948;8.472;2023-05-19T14:41:40;84.10;;;4.00;;
4895;SDS011;2463;49.948;8.472;2023-05-19T14:44:07;83.70;;;3.57;;
4895;SDS011;2463;49.948;8.472;2023-05-19T14:46:34;83.50;;;3.33;;
4895;SDS011;2463;49.948;8.472;2023-05-19T14:49:01;86.73;;;3.40;;
4895;SDS011;2463;49.948;8.472;2023-05-19T14:51:28;84.27;;;3.87;;
4895;SDS011;2463;49.948;8.472;2023-05-19T14:53:55;83.93;;;3.60;;
4895;SDS011;2463;49.948;8.472;2023-05-19T14:56:22;83.03;;;3.37;;
4895;SDS011;2463;49.948;8.472;2023-05-19T14:58:48;84.00;;;3.37;;
4895;SDS011;2463;49.948;8.472;2023-05-19T15:01:15;83.67;;;3.43;;
4895;SDS011;2463;49.948;8.472;2023-05-19T15:03:42;85.40;;;3.90;;
4895;SDS011;2463;49.948;8.472;2023-05-19T15:06:09;86.03;;;3.87;;
4895;SDS011;2463;49.948;8.472;2023-05-19T15:08:36;83.77;;;3.57;;
4895;SDS011;2463;49.948;8.472;2023-05-19T15:11:04;84.97;;;4.30;;
4895;SDS011;2463;49.948;8.472;2023-05-19T15:13:31;82.90;;;3.40;;
4895;SDS011;2463;49.948;8.472;2023-05-19T15:15:57;88.47;;;3.53;;
4895;SDS011;2463;49.948;8.472;2023-05-19T15:18:42;83.30;;;3.63;;
4895;SDS011;2463;49.948;8.472;2023-05-19T15:21:09;89.63;;;4.07;;
4895;SDS011;2463;49.948;8.472;2023-05-19T15:23:36;85.87;;;3.73;;
4895;SDS011;2463;49.948;8.472;2023-05-19T15:26:02;83.60;;;3.67;;
4895;SDS011;2463;49.948;8.472;2023-05-19T15:28:29;83.77;;;3.70;;
4895;SDS011;2463;49.948;8.472;2023-05-19T15:30:56;82.80;;;3.60;;
4895;SDS011;2463;49.948;8.472;2023-05-19T15:33:22;84.07;;;3.60;;
4895;SDS011;2463;49.948;8.472;2023-05-19T15:35:49;84.67;;;3.80;;